Terminal Aerodrome Forecast
Issued by NWS

Home | Current Version | Previous Version | Graphics & Text | Print | Product List | Glossary On
Versions: 1 2 3 4 5 6 7 8 9 10 11 12 13 14 15 16 17 18 19 20 21 22 23 24 25 26 27 28 29 30 31 32 33 34 35 36 37 38 39
000
FTUS43 KGRB 282300
TAFRHI
TAF
KRHI 282337Z 2900/2924 15007KT P6SM SCT090 OVC150 WS014/17030KT
     FM290300 16005KT 6SM BR SCT018 OVC035 WS014/19030KT
     FM290500 VRB03KT 3SM -FZDZSN BR BKN009 OVC018
     FM290700 VRB03KT 2SM -FZDZSN BR OVC005
     FM290900 29006KT 3SM -SN BR BKN006 OVC012
     FM291200 31008G15KT 5SM -SN BKN009 OVC018
     FM291500 32013G22KT P6SM -SN BKN015 BKN028 PROB30 2916/2922 2SM
      -SHSN=

USA.gov is the U.S. government's official web portal to all federal, state and local government web resources and services.